sensor_id;sensor_type;location;lat;lon;timestamp;P1;durP1;ratioP1;P2;durP2;ratioP2
35558;SDS011;21661;50.794;-1.066;2023-02-01T00:00:18;30.27;;;5.30;;
35558;SDS011;21661;50.794;-1.066;2023-02-01T00:02:44;29.60;;;4.68;;
35558;SDS011;21661;50.794;-1.066;2023-02-01T00:05:10;29.02;;;4.50;;
35558;SDS011;21661;50.794;-1.066;2023-02-01T00:07:36;21.15;;;4.80;;
35558;SDS011;21661;50.794;-1.066;2023-02-01T00:10:03;32.80;;;5.57;;
35558;SDS011;21661;50.794;-1.066;2023-02-01T00:12:29;26.08;;;4.38;;
35558;SDS011;21661;50.794;-1.066;2023-02-01T00:14:56;20.05;;;4.55;;
35558;SDS011;21661;50.794;-1.066;2023-02-01T00:17:21;21.63;;;4.28;;
35558;SDS011;21661;50.794;-1.066;2023-02-01T00:19:47;26.15;;;4.60;;
35558;SDS011;21661;50.794;-1.066;2023-02-01T00:22:13;22.55;;;4.35;;
35558;SDS011;21661;50.794;-1.066;2023-02-01T00:24:38;27.10;;;4.22;;
35558;SDS011;21661;50.794;-1.066;2023-02-01T00:27:04;18.70;;;3.90;;
35558;SDS011;21661;50.794;-1.066;2023-02-01T00:29:29;23.33;;;4.57;;
35558;SDS011;21661;50.794;-1.066;2023-02-01T00:31:55;24.33;;;5.07;;
35558;SDS011;21661;50.794;-1.066;2023-02-01T00:34:20;22.08;;;4.97;;
35558;SDS011;21661;50.794;-1.066;2023-02-01T00:36:46;22.33;;;4.22;;
35558;SDS011;21661;50.794;-1.066;2023-02-01T00:39:12;23.10;;;4.78;;
35558;SDS011;21661;50.794;-1.066;2023-02-01T00:41:38;24.48;;;4.50;;
35558;SDS011;21661;50.794;-1.066;2023-02-01T00:44:05;21.10;;;4.35;;
35558;SDS011;21661;50.794;-1.066;2023-02-01T00:46:31;18.98;;;4.03;;
35558;SDS011;21661;50.794;-1.066;2023-02-01T00:48:56;21.58;;;4.53;;
35558;SDS011;21661;50.794;-1.066;2023-02-01T00:51:23;28.70;;;6.20;;
35558;SDS011;21661;50.794;-1.066;2023-02-01T00:53:51;26.48;;;3.90;;
35558;SDS011;21661;50.794;-1.066;2023-02-01T00:56:17;23.73;;;4.55;;
35558;SDS011;21661;50.794;-1.066;2023-02-01T00:58:42;23.67;;;3.85;;
35558;SDS011;21661;50.794;-1.066;2023-02-01T01:01:11;26.00;;;3.63;;
35558;SDS011;21661;50.794;-1.066;2023-02-01T01:03:40;20.70;;;4.22;;
35558;SDS011;21661;50.794;-1.066;2023-02-01T01:06:14;25.83;;;4.78;;
35558;SDS011;21661;50.794;-1.066;2023-02-01T01:08:41;25.70;;;3.88;;
35558;SDS011;21661;50.794;-1.066;2023-02-01T01:11:18;25.45;;;3.65;;
35558;SDS011;21661;50.794;-1.066;2023-02-01T01:13:48;27.30;;;4.35;;
35558;SDS011;21661;50.794;-1.066;2023-02-01T01:16:14;20.67;;;3.83;;
35558;SDS011;21661;50.794;-1.066;2023-02-01T01:18:40;24.83;;;4.55;;
35558;SDS011;21661;50.794;-1.066;2023-02-01T01:21:07;26.48;;;3.85;;
35558;SDS011;21661;50.794;-1.066;2023-02-01T01:23:34;22.75;;;4.00;;
35558;SDS011;21661;50.794;-1.066;2023-02-01T01:26:00;23.08;;;3.95;;
35558;SDS011;21661;50.794;-1.066;2023-02-01T01:28:29;18.25;;;3.17;;
35558;SDS011;21661;50.794;-1.066;2023-02-01T01:30:54;22.63;;;3.80;;
35558;SDS011;21661;50.794;-1.066;2023-02-01T01:33:20;20.88;;;3.83;;
35558;SDS011;21661;50.794;-1.066;2023-02-01T01:35:46;27.15;;;3.35;;
35558;SDS011;21661;50.794;-1.066;2023-02-01T01:38:11;26.00;;;4.07;;
35558;SDS011;21661;50.794;-1.066;2023-02-01T01:40:37;27.70;;;5.57;;
35558;SDS011;21661;50.794;-1.066;2023-02-01T01:43:05;17.45;;;3.53;;
35558;SDS011;21661;50.794;-1.066;2023-02-01T01:45:41;22.33;;;3.58;;
35558;SDS011;21661;50.794;-1.066;2023-02-01T01:48:08;21.45;;;5.13;;
35558;SDS011;21661;50.794;-1.066;2023-02-01T01:53:43;18.33;;;3.58;;
35558;SDS011;21661;50.794;-1.066;2023-02-01T01:56:16;24.00;;;4.38;;
35558;SDS011;21661;50.794;-1.066;2023-02-01T01:58:42;21.45;;;4.30;;
35558;SDS011;21661;50.794;-1.066;2023-02-01T02:01:08;21.17;;;4.00;;
35558;SDS011;21661;50.794;-1.066;2023-02-01T02:03:37;26.98;;;4.25;;
35558;SDS011;21661;50.794;-1.066;2023-02-01T02:06:11;22.17;;;3.70;;
35558;SDS011;21661;50.794;-1.066;2023-02-01T02:08:46;17.33;;;3.30;;
35558;SDS011;21661;50.794;-1.066;2023-02-01T02:11:12;23.38;;;4.18;;
35558;SDS011;21661;50.794;-1.066;2023-02-01T02:13:42;32.03;;;4.30;;
35558;SDS011;21661;50.794;-1.066;2023-02-01T02:30:42;22.27;;;3.20;;
35558;SDS011;21661;50.794;-1.066;2023-02-01T02:49:12;23.40;;;3.53;;
35558;SDS011;21661;50.794;-1.066;2023-02-01T02:51:52;17.05;;;3.60;;
35558;SDS011;21661;50.794;-1.066;2023-02-01T02:54:41;17.75;;;4.00;;
35558;SDS011;21661;50.794;-1.066;2023-02-01T02:57:16;23.58;;;3.65;;
35558;SDS011;21661;50.794;-1.066;2023-02-01T03:03:01;19.90;;;4.88;;
35558;SDS011;21661;50.794;-1.066;2023-02-01T03:05:46;23.88;;;3.30;;
35558;SDS011;21661;50.794;-1.066;2023-02-01T03:08:19;23.77;;;3.83;;
35558;SDS011;21661;50.794;-1.066;2023-02-01T03:13:32;21.33;;;3.53;;
35558;SDS011;21661;50.794;-1.066;2023-02-01T03:16:10;20.23;;;2.92;;
35558;SDS011;21661;50.794;-1.066;2023-02-01T03:18:52;21.38;;;3.33;;
35558;SDS011;21661;50.794;-1.066;2023-02-01T03:21:23;20.58;;;4.00;;
35558;SDS011;21661;50.794;-1.066;2023-02-01T03:23:58;19.65;;;3.97;;
35558;SDS011;21661;50.794;-1.066;2023-02-01T03:26:27;20.80;;;3.58;;
35558;SDS011;21661;50.794;-1.066;2023-02-01T03:28:56;18.92;;;3.78;;
35558;SDS011;21661;50.794;-1.066;2023-02-01T03:31:27;22.83;;;3.65;;
35558;SDS011;21661;50.794;-1.066;2023-02-01T03:33:53;20.90;;;4.70;;
35558;SDS011;21661;50.794;-1.066;2023-02-01T03:36:35;22.08;;;3.28;;
35558;SDS011;21661;50.794;-1.066;2023-02-01T03:40:07;27.13;;;4.03;;
35558;SDS011;21661;50.794;-1.066;2023-02-01T03:42:13;16.23;;;3.05;;
35558;SDS011;21661;50.794;-1.066;2023-02-01T03:47:20;23.67;;;4.28;;
35558;SDS011;21661;50.794;-1.066;2023-02-01T03:49:55;18.02;;;3.35;;
35558;SDS011;21661;50.794;-1.066;2023-02-01T03:55:16;19.25;;;3.50;;
35558;SDS011;21661;50.794;-1.066;2023-02-01T03:57:46;21.42;;;3.65;;
35558;SDS011;21661;50.794;-1.066;2023-02-01T04:00:22;16.60;;;2.85;;
35558;SDS011;21661;50.794;-1.066;2023-02-01T04:02:49;22.67;;;3.75;;
35558;SDS011;21661;50.794;-1.066;2023-02-01T04:05:16;19.77;;;3.58;;
35558;SDS011;21661;50.794;-1.066;2023-02-01T04:07:41;20.00;;;3.78;;
35558;SDS011;21661;50.794;-1.066;2023-02-01T04:10:08;15.48;;;3.17;;
35558;SDS011;21661;50.794;-1.066;2023-02-01T04:12:34;22.15;;;3.45;;
35558;SDS011;21661;50.794;-1.066;2023-02-01T04:14:59;19.42;;;3.53;;
35558;SDS011;21661;50.794;-1.066;2023-02-01T04:17:25;29.35;;;5.70;;
35558;SDS011;21661;50.794;-1.066;2023-02-01T04:19:50;20.65;;;3.88;;
35558;SDS011;21661;50.794;-1.066;2023-02-01T04:22:16;23.35;;;3.17;;
35558;SDS011;21661;50.794;-1.066;2023-02-01T04:24:42;21.70;;;4.35;;
35558;SDS011;21661;50.794;-1.066;2023-02-01T04:27:07;25.55;;;3.60;;
35558;SDS011;21661;50.794;-1.066;2023-02-01T04:29:33;21.35;;;3.10;;
35558;SDS011;21661;50.794;-1.066;2023-02-01T04:31:58;20.92;;;3.70;;
35558;SDS011;21661;50.794;-1.066;2023-02-01T04:34:24;19.92;;;3.58;;
35558;SDS011;21661;50.794;-1.066;2023-02-01T04:36:50;23.95;;;3.30;;
35558;SDS011;21661;50.794;-1.066;2023-02-01T04:39:16;16.80;;;2.65;;
35558;SDS011;21661;50.794;-1.066;2023-02-01T04:41:42;28.80;;;4.13;;
35558;SDS011;21661;50.794;-1.066;2023-02-01T04:44:10;17.67;;;3.83;;
35558;SDS011;21661;50.794;-1.066;2023-02-01T04:46:39;16.23;;;3.13;;
35558;SDS011;21661;50.794;-1.066;2023-02-01T04:49:05;19.27;;;3.60;;
35558;SDS011;21661;50.794;-1.066;2023-02-01T04:51:31;19.60;;;3.40;;
35558;SDS011;21661;50.794;-1.066;2023-02-01T04:53:57;18.65;;;3.40;;
35558;SDS011;21661;50.794;-1.066;2023-02-01T04:56:22;23.67;;;2.90;;
35558;SDS011;21661;50.794;-1.066;2023-02-01T04:58:48;20.38;;;3.83;;
35558;SDS011;21661;50.794;-1.066;2023-02-01T05:01:14;38.13;;;4.05;;
35558;SDS011;21661;50.794;-1.066;2023-02-01T05:03:39;18.58;;;4.85;;
35558;SDS011;21661;50.794;-1.066;2023-02-01T05:06:05;15.73;;;2.92;;
35558;SDS011;21661;50.794;-1.066;2023-02-01T05:08:31;24.98;;;3.75;;
35558;SDS011;21661;50.794;-1.066;2023-02-01T05:10:57;18.33;;;3.00;;
35558;SDS011;21661;50.794;-1.066;2023-02-01T05:13:24;17.10;;;3.30;;
35558;SDS011;21661;50.794;-1.066;2023-02-01T05:16:08;23.13;;;3.92;;
35558;SDS011;21661;50.794;-1.066;2023-02-01T05:18:34;22.00;;;3.25;;
35558;SDS011;21661;50.794;-1.066;2023-02-01T05:21:00;22.55;;;3.42;;
35558;SDS011;21661;50.794;-1.066;2023-02-01T05:23:26;21.10;;;3.42;;
35558;SDS011;21661;50.794;-1.066;2023-02-01T05:25:52;21.23;;;3.88;;
35558;SDS011;21661;50.794;-1.066;2023-02-01T05:28:22;18.90;;;4.15;;
35558;SDS011;21661;50.794;-1.066;2023-02-01T05:30:48;19.80;;;3.53;;
35558;SDS011;21661;50.794;-1.066;2023-02-01T05:33:13;21.17;;;3.22;;
35558;SDS011;21661;50.794;-1.066;2023-02-01T05:35:39;18.70;;;3.92;;
35558;SDS011;21661;50.794;-1.066;2023-02-01T05:38:05;21.05;;;3.15;;
35558;SDS011;21661;50.794;-1.066;2023-02-01T05:40:30;22.27;;;3.42;;
35558;SDS011;21661;50.794;-1.066;2023-02-01T05:42:56;28.08;;;4.55;;
35558;SDS011;21661;50.794;-1.066;2023-02-01T05:45:21;22.55;;;3.35;;
35558;SDS011;21661;50.794;-1.066;2023-02-01T05:47:47;27.15;;;4.53;;
35558;SDS011;21661;50.794;-1.066;2023-02-01T05:50:12;21.05;;;3.53;;
35558;SDS011;21661;50.794;-1.066;2023-02-01T05:52:38;21.60;;;3.20;;
35558;SDS011;21661;50.794;-1.066;2023-02-01T05:55:04;21.88;;;4.00;;
35558;SDS011;21661;50.794;-1.066;2023-02-01T05:57:30;19.63;;;3.95;;
35558;SDS011;21661;50.794;-1.066;2023-02-01T05:59:56;21.17;;;3.70;;
35558;SDS011;21661;50.794;-1.066;2023-02-01T06:02:21;21.88;;;3.45;;
35558;SDS011;21661;50.794;-1.066;2023-02-01T06:04:49;19.02;;;4.03;;
35558;SDS011;21661;50.794;-1.066;2023-02-01T06:07:15;21.77;;;3.53;;
35558;SDS011;21661;50.794;-1.066;2023-02-01T06:09:40;20.27;;;3.60;;
35558;SDS011;21661;50.794;-1.066;2023-02-01T06:12:06;20.17;;;3.40;;
35558;SDS011;21661;50.794;-1.066;2023-02-01T06:14:32;20.50;;;4.30;;
35558;SDS011;21661;50.794;-1.066;2023-02-01T06:16:58;28.10;;;3.80;;
35558;SDS011;21661;50.794;-1.066;2023-02-01T06:19:23;26.90;;;4.40;;
35558;SDS011;21661;50.794;-1.066;2023-02-01T06:21:49;30.80;;;4.32;;
35558;SDS011;21661;50.794;-1.066;2023-02-01T06:24:14;24.13;;;3.80;;
35558;SDS011;21661;50.794;-1.066;2023-02-01T06:26:40;23.75;;;3.78;;
35558;SDS011;21661;50.794;-1.066;2023-02-01T06:29:06;34.50;;;3.92;;
35558;SDS011;21661;50.794;-1.066;2023-02-01T06:31:34;40.08;;;4.10;;
35558;SDS011;21661;50.794;-1.066;2023-02-01T06:33:59;21.42;;;4.18;;
35558;SDS011;21661;50.794;-1.066;2023-02-01T06:36:25;20.05;;;3.75;;
35558;SDS011;21661;50.794;-1.066;2023-02-01T06:38:51;21.13;;;3.80;;
35558;SDS011;21661;50.794;-1.066;2023-02-01T06:41:17;22.17;;;3.30;;
35558;SDS011;21661;50.794;-1.066;2023-02-01T06:43:42;18.52;;;3.70;;
35558;SDS011;21661;50.794;-1.066;2023-02-01T06:46:11;24.90;;;3.28;;
35558;SDS011;21661;50.794;-1.066;2023-02-01T06:48:37;22.25;;;3.55;;
35558;SDS011;21661;50.794;-1.066;2023-02-01T06:51:03;23.27;;;3.83;;
35558;SDS011;21661;50.794;-1.066;2023-02-01T06:53:29;17.48;;;3.42;;
35558;SDS011;21661;50.794;-1.066;2023-02-01T06:55:55;20.88;;;4.28;;
35558;SDS011;21661;50.794;-1.066;2023-02-01T06:58:23;23.08;;;4.20;;
35558;SDS011;21661;50.794;-1.066;2023-02-01T07:00:52;21.67;;;3.65;;
35558;SDS011;21661;50.794;-1.066;2023-02-01T07:03:18;22.23;;;3.70;;
35558;SDS011;21661;50.794;-1.066;2023-02-01T07:05:44;19.25;;;3.40;;
35558;SDS011;21661;50.794;-1.066;2023-02-01T07:08:09;28.52;;;4.03;;
35558;SDS011;21661;50.794;-1.066;2023-02-01T07:10:35;25.92;;;3.70;;
35558;SDS011;21661;50.794;-1.066;2023-02-01T07:13:01;22.73;;;3.88;;
35558;SDS011;21661;50.794;-1.066;2023-02-01T07:15:26;23.98;;;4.10;;
35558;SDS011;21661;50.794;-1.066;2023-02-01T07:17:54;24.02;;;4.60;;
35558;SDS011;21661;50.794;-1.066;2023-02-01T07:20:19;23.02;;;3.85;;
35558;SDS011;21661;50.794;-1.066;2023-02-01T07:22:45;21.98;;;3.70;;
35558;SDS011;21661;50.794;-1.066;2023-02-01T07:25:10;26.23;;;3.90;;
35558;SDS011;21661;50.794;-1.066;2023-02-01T07:27:36;19.48;;;3.53;;
35558;SDS011;21661;50.794;-1.066;2023-02-01T07:30:03;28.02;;;3.88;;
35558;SDS011;21661;50.794;-1.066;2023-02-01T07:32:29;25.80;;;4.97;;
35558;SDS011;21661;50.794;-1.066;2023-02-01T07:34:56;27.27;;;5.18;;
35558;SDS011;21661;50.794;-1.066;2023-02-01T07:37:22;25.85;;;3.78;;
35558;SDS011;21661;50.794;-1.066;2023-02-01T07:39:49;17.13;;;3.75;;
35558;SDS011;21661;50.794;-1.066;2023-02-01T07:42:17;19.17;;;3.90;;
35558;SDS011;21661;50.794;-1.066;2023-02-01T07:44:43;18.83;;;4.13;;
35558;SDS011;21661;50.794;-1.066;2023-02-01T07:47:09;20.85;;;3.95;;
35558;SDS011;21661;50.794;-1.066;2023-02-01T07:49:35;22.00;;;3.90;;
35558;SDS011;21661;50.794;-1.066;2023-02-01T07:52:00;23.80;;;3.90;;
35558;SDS011;21661;50.794;-1.066;2023-02-01T07:54:26;26.30;;;3.80;;
35558;SDS011;21661;50.794;-1.066;2023-02-01T07:56:51;22.90;;;3.45;;
35558;SDS011;21661;50.794;-1.066;2023-02-01T07:59:17;20.77;;;3.50;;
35558;SDS011;21661;50.794;-1.066;2023-02-01T08:01:43;21.23;;;3.83;;
35558;SDS011;21661;50.794;-1.066;2023-02-01T08:04:12;23.38;;;3.17;;
35558;SDS011;21661;50.794;-1.066;2023-02-01T08:06:38;21.90;;;3.83;;
35558;SDS011;21661;50.794;-1.066;2023-02-01T08:09:05;14.60;;;3.20;;
35558;SDS011;21661;50.794;-1.066;2023-02-01T08:11:33;21.38;;;3.17;;
35558;SDS011;21661;50.794;-1.066;2023-02-01T08:13:59;19.42;;;5.18;;
35558;SDS011;21661;50.794;-1.066;2023-02-01T08:16:24;20.33;;;3.97;;
35558;SDS011;21661;50.794;-1.066;2023-02-01T08:18:50;23.92;;;4.35;;
35558;SDS011;21661;50.794;-1.066;2023-02-01T08:21:18;24.00;;;3.53;;
35558;SDS011;21661;50.794;-1.066;2023-02-01T08:23:47;27.98;;;3.90;;
35558;SDS011;21661;50.794;-1.066;2023-02-01T08:26:14;27.38;;;4.45;;
35558;SDS011;21661;50.794;-1.066;2023-02-01T08:28:41;24.88;;;3.95;;
35558;SDS011;21661;50.794;-1.066;2023-02-01T08:31:09;23.35;;;3.97;;
35558;SDS011;21661;50.794;-1.066;2023-02-01T08:33:39;19.15;;;4.00;;
35558;SDS011;21661;50.794;-1.066;2023-02-01T08:36:06;14.15;;;3.90;;
35558;SDS011;21661;50.794;-1.066;2023-02-01T08:38:37;18.02;;;4.00;;
35558;SDS011;21661;50.794;-1.066;2023-02-01T08:41:05;23.13;;;3.53;;
35558;SDS011;21661;50.794;-1.066;2023-02-01T08:43:35;31.50;;;4.63;;
35558;SDS011;21661;50.794;-1.066;2023-02-01T08:46:01;26.10;;;4.78;;
35558;SDS011;21661;50.794;-1.066;2023-02-01T08:48:28;22.75;;;3.90;;
35558;SDS011;21661;50.794;-1.066;2023-02-01T08:50:53;23.27;;;3.55;;
35558;SDS011;21661;50.794;-1.066;2023-02-01T08:53:19;20.10;;;4.28;;
35558;SDS011;21661;50.794;-1.066;2023-02-01T08:55:45;24.42;;;3.75;;
35558;SDS011;21661;50.794;-1.066;2023-02-01T08:58:12;24.27;;;3.35;;
35558;SDS011;21661;50.794;-1.066;2023-02-01T09:00:39;24.95;;;4.00;;
35558;SDS011;21661;50.794;-1.066;2023-02-01T09:03:05;24.83;;;4.97;;
35558;SDS011;21661;50.794;-1.066;2023-02-01T09:05:31;30.00;;;4.47;;
35558;SDS011;21661;50.794;-1.066;2023-02-01T09:07:56;23.70;;;3.58;;
35558;SDS011;21661;50.794;-1.066;2023-02-01T09:10:22;23.17;;;3.70;;
35558;SDS011;21661;50.794;-1.066;2023-02-01T09:12:47;26.88;;;4.63;;
35558;SDS011;21661;50.794;-1.066;2023-02-01T09:15:13;20.52;;;4.10;;
35558;SDS011;21661;50.794;-1.066;2023-02-01T09:17:39;23.55;;;4.28;;
35558;SDS011;21661;50.794;-1.066;2023-02-01T09:20:06;14.70;;;3.38;;
35558;SDS011;21661;50.794;-1.066;2023-02-01T09:22:33;25.65;;;4.82;;
35558;SDS011;21661;50.794;-1.066;2023-02-01T09:24:59;29.10;;;5.18;;
35558;SDS011;21661;50.794;-1.066;2023-02-01T09:27:25;21.80;;;4.22;;
35558;SDS011;21661;50.794;-1.066;2023-02-01T09:29:50;19.42;;;3.38;;
35558;SDS011;21661;50.794;-1.066;2023-02-01T09:32:18;29.73;;;3.60;;
35558;SDS011;21661;50.794;-1.066;2023-02-01T09:34:48;22.50;;;3.67;;
35558;SDS011;21661;50.794;-1.066;2023-02-01T09:37:14;27.35;;;5.22;;
35558;SDS011;21661;50.794;-1.066;2023-02-01T09:39:40;27.48;;;3.83;;
35558;SDS011;21661;50.794;-1.066;2023-02-01T09:47:55;20.50;;;3.92;;
35558;SDS011;21661;50.794;-1.066;2023-02-01T09:50:33;17.83;;;3.65;;
35558;SDS011;21661;50.794;-1.066;2023-02-01T09:53:04;21.75;;;4.72;;
35558;SDS011;21661;50.794;-1.066;2023-02-01T09:55:43;25.20;;;4.05;;
35558;SDS011;21661;50.794;-1.066;2023-02-01T09:58:26;22.58;;;4.80;;
35558;SDS011;21661;50.794;-1.066;2023-02-01T10:01:00;23.90;;;4.80;;
35558;SDS011;21661;50.794;-1.066;2023-02-01T10:03:28;21.30;;;3.85;;
35558;SDS011;21661;50.794;-1.066;2023-02-01T10:06:13;21.52;;;4.05;;
35558;SDS011;21661;50.794;-1.066;2023-02-01T10:13:52;19.88;;;3.60;;
35558;SDS011;21661;50.794;-1.066;2023-02-01T10:19:05;23.27;;;3.33;;
35558;SDS011;21661;50.794;-1.066;2023-02-01T10:24:29;22.17;;;3.28;;
35558;SDS011;21661;50.794;-1.066;2023-02-01T10:27:14;24.10;;;4.65;;
35558;SDS011;21661;50.794;-1.066;2023-02-01T10:29:42;22.27;;;3.65;;
35558;SDS011;21661;50.794;-1.066;2023-02-01T10:32:12;24.00;;;4.32;;
35558;SDS011;21661;50.794;-1.066;2023-02-01T10:34:39;19.58;;;4.82;;
35558;SDS011;21661;50.794;-1.066;2023-02-01T10:37:49;29.02;;;4.32;;
35558;SDS011;21661;50.794;-1.066;2023-02-01T10:39:59;22.85;;;3.75;;
35558;SDS011;21661;50.794;-1.066;2023-02-01T10:42:30;13.20;;;3.53;;
35558;SDS011;21661;50.794;-1.066;2023-02-01T10:44:57;27.48;;;5.35;;
35558;SDS011;21661;50.794;-1.066;2023-02-01T10:47:25;22.23;;;4.15;;
35558;SDS011;21661;50.794;-1.066;2023-02-01T10:53:05;21.70;;;6.28;;
35558;SDS011;21661;50.794;-1.066;2023-02-01T10:55:39;21.02;;;4.13;;
35558;SDS011;21661;50.794;-1.066;2023-02-01T10:58:18;17.27;;;3.75;;
35558;SDS011;21661;50.794;-1.066;2023-02-01T11:00:57;21.48;;;5.38;;
35558;SDS011;21661;50.794;-1.066;2023-02-01T11:06:47;22.67;;;4.40;;
35558;SDS011;21661;50.794;-1.066;2023-02-01T11:08:59;19.40;;;3.53;;
35558;SDS011;21661;50.794;-1.066;2023-02-01T11:11:55;23.85;;;4.47;;
35558;SDS011;21661;50.794;-1.066;2023-02-01T11:16:53;19.30;;;5.30;;
35558;SDS011;21661;50.794;-1.066;2023-02-01T11:19:45;24.27;;;4.07;;
35558;SDS011;21661;50.794;-1.066;2023-02-01T11:22:12;26.30;;;5.47;;
35558;SDS011;21661;50.794;-1.066;2023-02-01T11:24:39;27.33;;;5.03;;
35558;SDS011;21661;50.794;-1.066;2023-02-01T11:27:14;30.67;;;8.52;;
35558;SDS011;21661;50.794;-1.066;2023-02-01T11:29:43;23.70;;;5.93;;
35558;SDS011;21661;50.794;-1.066;2023-02-01T11:32:12;30.55;;;6.95;;
35558;SDS011;21661;50.794;-1.066;2023-02-01T11:34:41;26.67;;;5.13;;
35558;SDS011;21661;50.794;-1.066;2023-02-01T11:37:21;32.22;;;5.38;;
35558;SDS011;21661;50.794;-1.066;2023-02-01T11:39:54;23.33;;;5.38;;
35558;SDS011;21661;50.794;-1.066;2023-02-01T11:42:24;24.70;;;4.60;;
35558;SDS011;21661;50.794;-1.066;2023-02-01T11:44:51;22.45;;;4.10;;
35558;SDS011;21661;50.794;-1.066;2023-02-01T11:47:53;24.67;;;4.50;;
35558;SDS011;21661;50.794;-1.066;2023-02-01T11:50:28;23.88;;;4.63;;
35558;SDS011;21661;50.794;-1.066;2023-02-01T12:01:37;25.23;;;4.22;;
35558;SDS011;21661;50.794;-1.066;2023-02-01T12:07:04;18.25;;;4.05;;
35558;SDS011;21661;50.794;-1.066;2023-02-01T12:09:42;16.38;;;3.75;;
35558;SDS011;21661;50.794;-1.066;2023-02-01T12:12:16;21.73;;;3.55;;
35558;SDS011;21661;50.794;-1.066;2023-02-01T12:26:35;24.52;;;4.85;;
35558;SDS011;21661;50.794;-1.066;2023-02-01T12:29:25;21.48;;;3.40;;
35558;SDS011;21661;50.794;-1.066;2023-02-01T12:32:04;24.13;;;3.67;;
35558;SDS011;21661;50.794;-1.066;2023-02-01T12:42:44;14.90;;;3.15;;
35558;SDS011;21661;50.794;-1.066;2023-02-01T12:45:40;23.52;;;3.85;;
35558;SDS011;21661;50.794;-1.066;2023-02-01T12:48:22;14.32;;;4.22;;
35558;SDS011;21661;50.794;-1.066;2023-02-01T12:50:56;19.83;;;3.10;;
35558;SDS011;21661;50.794;-1.066;2023-02-01T12:53:46;20.10;;;3.25;;
35558;SDS011;21661;50.794;-1.066;2023-02-01T12:56:31;15.98;;;3.60;;
35558;SDS011;21661;50.794;-1.066;2023-02-01T12:59:05;27.15;;;3.78;;
35558;SDS011;21661;50.794;-1.066;2023-02-01T13:05:01;18.38;;;3.08;;
35558;SDS011;21661;50.794;-1.066;2023-02-01T13:07:44;13.40;;;2.83;;
35558;SDS011;21661;50.794;-1.066;2023-02-01T13:10:33;13.32;;;3.28;;
35558;SDS011;21661;50.794;-1.066;2023-02-01T13:15:45;16.10;;;2.92;;
35558;SDS011;21661;50.794;-1.066;2023-02-01T13:18:21;21.95;;;4.10;;
35558;SDS011;21661;50.794;-1.066;2023-02-01T13:23:38;23.23;;;3.40;;
35558;SDS011;21661;50.794;-1.066;2023-02-01T13:26:05;16.60;;;2.72;;
35558;SDS011;21661;50.794;-1.066;2023-02-01T13:28:41;17.30;;;3.15;;
35558;SDS011;21661;50.794;-1.066;2023-02-01T13:31:46;13.50;;;2.97;;
35558;SDS011;21661;50.794;-1.066;2023-02-01T13:42:52;14.63;;;2.83;;
35558;SDS011;21661;50.794;-1.066;2023-02-01T13:45:21;17.50;;;2.75;;
35558;SDS011;21661;50.794;-1.066;2023-02-01T13:47:58;20.52;;;2.47;;
35558;SDS011;21661;50.794;-1.066;2023-02-01T13:55:36;16.88;;;2.47;;
35558;SDS011;21661;50.794;-1.066;2023-02-01T13:58:20;14.27;;;2.33;;
35558;SDS011;21661;50.794;-1.066;2023-02-01T14:01:13;17.23;;;2.45;;
35558;SDS011;21661;50.794;-1.066;2023-02-01T14:03:58;14.07;;;2.50;;
35558;SDS011;21661;50.794;-1.066;2023-02-01T14:09:34;16.40;;;2.88;;
35558;SDS011;21661;50.794;-1.066;2023-02-01T14:11:51;14.05;;;2.28;;
35558;SDS011;21661;50.794;-1.066;2023-02-01T14:16:44;16.27;;;2.97;;
35558;SDS011;21661;50.794;-1.066;2023-02-01T14:19:35;12.90;;;2.38;;
35558;SDS011;21661;50.794;-1.066;2023-02-01T14:22:31;15.48;;;2.75;;
35558;SDS011;21661;50.794;-1.066;2023-02-01T14:24:55;13.02;;;2.85;;
35558;SDS011;21661;50.794;-1.066;2023-02-01T14:27:29;14.93;;;2.53;;
35558;SDS011;21661;50.794;-1.066;2023-02-01T14:30:01;14.32;;;2.53;;
35558;SDS011;21661;50.794;-1.066;2023-02-01T14:32:33;10.02;;;2.38;;
35558;SDS011;21661;50.794;-1.066;2023-02-01T14:37:33;11.95;;;1.98;;
35558;SDS011;21661;50.794;-1.066;2023-02-01T14:40:03;13.80;;;2.40;;
35558;SDS011;21661;50.794;-1.066;2023-02-01T14:42:43;9.85;;;2.03;;
35558;SDS011;21661;50.794;-1.066;2023-02-01T14:52:49;11.07;;;2.00;;
35558;SDS011;21661;50.794;-1.066;2023-02-01T14:55:21;10.05;;;2.10;;
35558;SDS011;21661;50.794;-1.066;2023-02-01T14:57:52;11.80;;;2.33;;
35558;SDS011;21661;50.794;-1.066;2023-02-01T15:00:26;18.17;;;2.28;;
35558;SDS011;21661;50.794;-1.066;2023-02-01T15:02:55;13.00;;;3.00;;
35558;SDS011;21661;50.794;-1.066;2023-02-01T15:05:40;12.68;;;2.60;;
35558;SDS011;21661;50.794;-1.066;2023-02-01T15:08:28;14.90;;;2.13;;
35558;SDS011;21661;50.794;-1.066;2023-02-01T15:11:02;11.65;;;3.15;;
35558;SDS011;21661;50.794;-1.066;2023-02-01T15:13:31;15.32;;;2.80;;
35558;SDS011;21661;50.794;-1.066;2023-02-01T15:16:11;15.57;;;2.63;;
35558;SDS011;21661;50.794;-1.066;2023-02-01T15:18:38;21.77;;;2.58;;
35558;SDS011;21661;50.794;-1.066;2023-02-01T15:21:05;10.45;;;2.13;;
35558;SDS011;21661;50.794;-1.066;2023-02-01T15:23:32;18.73;;;2.58;;
35558;SDS011;21661;50.794;-1.066;2023-02-01T15:25:58;14.52;;;3.40;;
35558;SDS011;21661;50.794;-1.066;2023-02-01T15:28:24;10.82;;;2.30;;
35558;SDS011;21661;50.794;-1.066;2023-02-01T15:30:58;17.08;;;2.33;;
35558;SDS011;21661;50.794;-1.066;2023-02-01T15:33:27;17.10;;;3.00;;
35558;SDS011;21661;50.794;-1.066;2023-02-01T15:35:54;18.60;;;3.30;;
35558;SDS011;21661;50.794;-1.066;2023-02-01T15:38:32;14.40;;;2.22;;
35558;SDS011;21661;50.794;-1.066;2023-02-01T15:46:24;17.00;;;3.00;;
35558;SDS011;21661;50.794;-1.066;2023-02-01T15:48:58;12.38;;;2.78;;
35558;SDS011;21661;50.794;-1.066;2023-02-01T15:51:25;16.25;;;3.08;;
35558;SDS011;21661;50.794;-1.066;2023-02-01T15:53:58;17.35;;;3.05;;
35558;SDS011;21661;50.794;-1.066;2023-02-01T15:56:25;14.32;;;2.90;;
35558;SDS011;21661;50.794;-1.066;2023-02-01T15:58:55;15.27;;;2.70;;
35558;SDS011;21661;50.794;-1.066;2023-02-01T16:01:23;16.88;;;2.92;;
35558;SDS011;21661;50.794;-1.066;2023-02-01T16:03:50;14.10;;;2.88;;
35558;SDS011;21661;50.794;-1.066;2023-02-01T16:06:29;11.85;;;2.28;;
35558;SDS011;21661;50.794;-1.066;2023-02-01T16:11:27;16.15;;;2.50;;
35558;SDS011;21661;50.794;-1.066;2023-02-01T16:13:55;14.23;;;2.58;;
35558;SDS011;21661;50.794;-1.066;2023-02-01T16:16:22;13.48;;;2.90;;
35558;SDS011;21661;50.794;-1.066;2023-02-01T16:18:48;15.77;;;2.30;;
35558;SDS011;21661;50.794;-1.066;2023-02-01T16:21:13;15.68;;;2.88;;
35558;SDS011;21661;50.794;-1.066;2023-02-01T16:23:39;14.70;;;2.70;;
35558;SDS011;21661;50.794;-1.066;2023-02-01T16:26:05;18.00;;;2.75;;
35558;SDS011;21661;50.794;-1.066;2023-02-01T16:28:31;14.57;;;3.17;;
35558;SDS011;21661;50.794;-1.066;2023-02-01T16:30:57;12.32;;;3.22;;
35558;SDS011;21661;50.794;-1.066;2023-02-01T16:33:23;11.45;;;2.05;;
35558;SDS011;21661;50.794;-1.066;2023-02-01T16:35:50;14.23;;;3.35;;
35558;SDS011;21661;50.794;-1.066;2023-02-01T16:38:17;18.95;;;3.53;;
35558;SDS011;21661;50.794;-1.066;2023-02-01T16:40:46;12.98;;;3.25;;
35558;SDS011;21661;50.794;-1.066;2023-02-01T16:43:13;15.68;;;3.13;;
35558;SDS011;21661;50.794;-1.066;2023-02-01T16:45:42;14.35;;;3.08;;
35558;SDS011;21661;50.794;-1.066;2023-02-01T16:48:17;20.03;;;3.47;;
35558;SDS011;21661;50.794;-1.066;2023-02-01T16:50:45;12.60;;;2.35;;
35558;SDS011;21661;50.794;-1.066;2023-02-01T16:53:12;14.07;;;2.70;;
35558;SDS011;21661;50.794;-1.066;2023-02-01T16:55:40;11.80;;;2.20;;
35558;SDS011;21661;50.794;-1.066;2023-02-01T16:58:08;15.05;;;2.65;;
35558;SDS011;21661;50.794;-1.066;2023-02-01T17:00:34;16.02;;;2.55;;
35558;SDS011;21661;50.794;-1.066;2023-02-01T17:03:02;16.20;;;3.75;;